Terminal Aerodrome Forecast
Issued by NWS

Home | Current Version | Previous Version | Text Only | Print | Product List | Glossary On
Versions: 1 2 3 4 5 6 7 8 9 10 11 12 13 14 15 16 17 18 19
000
FTUS41 KGYX 022320
TAFLEB
TAF
KLEB 022320Z 0300/0324 00000KT P6SM OVC010
     FM030300 00000KT 4SM BR OVC003
     FM031200 00000KT P6SM OVC007
     FM031500 36002KT P6SM OVC025
     FM031700 03002KT P6SM OVC050=

USA.gov is the U.S. government's official web portal to all federal, state and local government web resources and services.